createdAt,value
2023-02-13T00:00:35.768Z,4.80
2023-02-13T00:03:03.629Z,4.50
2023-02-13T00:05:31.647Z,4.50
2023-02-13T00:07:59.523Z,4.57
2023-02-13T00:10:27.427Z,5.03
2023-02-13T00:12:55.398Z,4.85
2023-02-13T00:15:23.235Z,4.90
2023-02-13T00:17:52.705Z,5.03
2023-02-13T00:20:20.833Z,4.70
2023-02-13T00:22:48.779Z,4.57
2023-02-13T00:25:16.679Z,4.65
2023-02-13T00:27:44.923Z,4.63
2023-02-13T00:30:13.752Z,4.80
2023-02-13T00:32:42.153Z,4.88
2023-02-13T00:35:11.350Z,4.70
2023-02-13T00:37:39.189Z,4.45
2023-02-13T00:40:08.190Z,4.57
2023-02-13T00:42:36.089Z,4.38
2023-02-13T00:45:04.024Z,4.60
2023-02-13T00:47:34.008Z,4.70
2023-02-13T00:50:02.167Z,4.88
2023-02-13T00:52:31.798Z,4.55
2023-02-13T00:54:59.697Z,4.60
2023-02-13T00:57:27.695Z,4.80
2023-02-13T00:59:55.636Z,4.82
2023-02-13T01:02:23.525Z,4.90
2023-02-13T01:04:51.389Z,4.65
2023-02-13T01:07:19.574Z,4.75
2023-02-13T01:09:48.935Z,4.63
2023-02-13T01:12:16.844Z,4.45
2023-02-13T01:14:44.774Z,4.45
2023-02-13T01:17:12.663Z,4.63
2023-02-13T01:19:41.896Z,4.85
2023-02-13T01:22:09.973Z,4.43
2023-02-13T01:24:37.840Z,4.63
2023-02-13T01:27:07.060Z,4.72
2023-02-13T01:29:35.126Z,4.57
2023-02-13T01:32:05.166Z,4.90
2023-02-13T01:34:33.365Z,4.60
2023-02-13T01:37:01.446Z,4.43
2023-02-13T01:39:29.474Z,4.20
2023-02-13T01:41:57.691Z,4.20
2023-02-13T01:44:53.844Z,4.38
2023-02-13T01:47:25.776Z,4.50
2023-02-13T01:49:57.483Z,4.30
2023-02-13T01:52:25.391Z,4.38
2023-02-13T01:54:53.273Z,4.38
2023-02-13T01:57:22.994Z,4.40
2023-02-13T01:59:54.539Z,4.35
2023-02-13T02:02:22.839Z,4.18
2023-02-13T02:04:50.879Z,4.38
2023-02-13T02:07:22.863Z,4.20
2023-02-13T02:09:52.241Z,4.30
2023-02-13T02:12:25.082Z,4.20
2023-02-13T02:14:55.581Z,4.13
2023-02-13T02:17:25.625Z,4.25
2023-02-13T02:19:58.690Z,4.05
2023-02-13T02:23:01.872Z,4.43
2023-02-13T02:26:20.018Z,3.97
2023-02-13T02:29:16.444Z,4.20
2023-02-13T02:32:07.598Z,4.28
2023-02-13T02:34:48.111Z,4.03
2023-02-13T02:37:24.623Z,4.45
2023-02-13T02:39:58.877Z,4.00
2023-02-13T02:42:31.091Z,4.07
2023-02-13T02:45:03.413Z,4.28
2023-02-13T02:47:59.199Z,3.90
2023-02-13T02:50:34.310Z,4.07
2023-02-13T02:53:08.871Z,4.00
2023-02-13T02:55:43.111Z,3.90
2023-02-13T02:58:32.632Z,4.00
2023-02-13T03:01:19.279Z,3.75
2023-02-13T03:04:04.259Z,3.75
2023-02-13T03:06:35.704Z,3.90
2023-02-13T03:09:22.380Z,4.10
2023-02-13T03:12:08.879Z,3.80
2023-02-13T03:14:36.805Z,3.85
2023-02-13T03:17:22.569Z,3.72
2023-02-13T03:20:15.867Z,3.60
2023-02-13T03:22:52.790Z,3.55
2023-02-13T03:25:30.198Z,4.10
2023-02-13T03:28:16.491Z,3.83
2023-02-13T03:30:51.596Z,3.70
2023-02-13T03:33:28.614Z,3.75
2023-02-13T03:36:20.249Z,3.70
2023-02-13T03:38:53.100Z,3.38
2023-02-13T03:41:23.035Z,3.70
2023-02-13T03:43:57.297Z,3.58
2023-02-13T03:46:25.459Z,3.67
2023-02-13T03:49:11.097Z,3.80
2023-02-13T03:51:40.337Z,3.40
2023-02-13T03:54:14.083Z,3.47
2023-02-13T03:56:59.551Z,3.47
2023-02-13T03:59:29.088Z,3.65
2023-02-13T04:02:01.133Z,3.50
2023-02-13T04:04:32.752Z,3.30
2023-02-13T04:07:02.345Z,3.60
2023-02-13T04:09:31.893Z,3.20
2023-02-13T04:12:02.836Z,3.13
2023-02-13T04:14:34.580Z,3.08
2023-02-13T04:17:05.099Z,3.42
2023-02-13T04:19:33.272Z,3.03
2023-02-13T04:22:02.090Z,3.10
2023-02-13T04:24:31.326Z,3.63
2023-02-13T04:26:59.179Z,3.28
2023-02-13T04:29:27.474Z,3.05
2023-02-13T04:31:55.370Z,3.10
2023-02-13T04:34:23.250Z,3.50
2023-02-13T04:36:51.110Z,3.30
2023-02-13T04:39:18.965Z,3.40
2023-02-13T04:41:48.480Z,3.10
2023-02-13T04:44:16.331Z,3.33
2023-02-13T04:46:44.268Z,3.67
2023-02-13T04:49:12.211Z,3.25
2023-02-13T04:51:40.055Z,3.30
2023-02-13T04:54:07.913Z,3.40
2023-02-13T04:56:35.744Z,3.28
2023-02-13T04:59:04.955Z,3.05
2023-02-13T05:01:32.847Z,3.00
2023-02-13T05:04:00.796Z,3.17
2023-02-13T05:06:28.624Z,3.47
2023-02-13T05:08:57.795Z,3.33
2023-02-13T05:11:25.638Z,3.08
2023-02-13T05:13:53.479Z,3.22
2023-02-13T05:16:22.715Z,3.30
2023-02-13T05:18:54.740Z,3.40
2023-02-13T05:21:40.589Z,3.30
2023-02-13T05:24:08.644Z,3.20
2023-02-13T05:26:36.500Z,3.00
2023-02-13T05:29:19.708Z,2.92
2023-02-13T05:31:49.389Z,3.10
2023-02-13T05:34:17.520Z,3.00
2023-02-13T05:36:45.369Z,3.20
2023-02-13T05:39:13.328Z,3.10
2023-02-13T05:41:41.201Z,3.08
2023-02-13T05:44:09.159Z,3.22
2023-02-13T05:46:39.222Z,3.10
2023-02-13T05:49:09.092Z,3.00
2023-02-13T05:51:36.974Z,2.75
2023-02-13T05:54:04.980Z,3.00
2023-02-13T05:56:32.855Z,3.17
2023-02-13T05:59:00.774Z,3.17
2023-02-13T06:01:28.682Z,2.88
2023-02-13T06:03:58.767Z,2.72
2023-02-13T06:06:28.697Z,2.78
2023-02-13T06:08:56.604Z,2.90
2023-02-13T06:11:24.526Z,3.25
2023-02-13T06:13:52.392Z,3.13
2023-02-13T06:16:20.393Z,3.10
2023-02-13T06:18:48.309Z,3.35
2023-02-13T06:21:16.285Z,3.05
2023-02-13T06:23:45.557Z,3.03
2023-02-13T06:26:13.453Z,2.78
2023-02-13T06:28:41.442Z,2.70
2023-02-13T06:31:09.443Z,2.78
2023-02-13T06:33:37.472Z,2.90
2023-02-13T06:36:05.651Z,2.97
2023-02-13T06:38:33.517Z,3.10
2023-02-13T06:41:02.842Z,2.90
2023-02-13T06:43:32.694Z,2.70
2023-02-13T06:46:00.598Z,2.97
2023-02-13T06:48:28.462Z,2.67
2023-02-13T06:50:56.572Z,2.75
2023-02-13T06:53:25.650Z,2.97
2023-02-13T06:55:54.026Z,2.90
2023-02-13T06:58:23.573Z,2.95
2023-02-13T07:00:51.569Z,2.80
2023-02-13T07:03:19.629Z,3.00
2023-02-13T07:05:47.527Z,3.10
2023-02-13T07:08:15.430Z,2.83
2023-02-13T07:10:43.285Z,2.70
2023-02-13T07:13:11.230Z,3.00
2023-02-13T07:15:40.472Z,2.70
2023-02-13T07:18:08.372Z,2.80
2023-02-13T07:20:36.322Z,2.58
2023-02-13T07:23:05.663Z,2.90
2023-02-13T07:25:33.707Z,2.97
2023-02-13T07:28:04.788Z,2.92
2023-02-13T07:30:32.986Z,3.00
2023-02-13T07:33:02.696Z,2.83
2023-02-13T07:35:30.555Z,2.88
2023-02-13T07:37:59.290Z,2.67
2023-02-13T07:40:27.334Z,2.80
2023-02-13T07:42:55.287Z,2.92
2023-02-13T07:45:23.260Z,2.60
2023-02-13T07:47:51.126Z,2.75
2023-02-13T07:50:20.564Z,2.70
2023-02-13T07:52:54.516Z,3.00
2023-02-13T07:55:22.434Z,2.85
2023-02-13T07:57:50.467Z,3.03
2023-02-13T08:00:19.102Z,2.65
2023-02-13T08:02:47.089Z,2.85
2023-02-13T08:05:15.060Z,2.60
2023-02-13T08:07:44.279Z,2.85
2023-02-13T08:10:30.652Z,2.72
2023-02-13T08:12:58.491Z,2.83
2023-02-13T08:15:26.482Z,2.70
2023-02-13T08:17:54.362Z,2.80
2023-02-13T08:20:22.207Z,2.85
2023-02-13T08:22:51.459Z,2.72
2023-02-13T08:25:19.660Z,3.10
2023-02-13T08:27:47.606Z,2.92
2023-02-13T08:30:16.149Z,3.35
2023-02-13T08:32:53.948Z,2.80
2023-02-13T08:35:22.668Z,2.90
2023-02-13T08:37:51.957Z,3.08
2023-02-13T08:40:20.187Z,2.97
2023-02-13T08:42:48.068Z,3.00
2023-02-13T08:45:16.281Z,2.97
2023-02-13T08:47:44.111Z,3.00
2023-02-13T08:50:12.406Z,2.80
2023-02-13T08:52:40.288Z,2.90
2023-02-13T08:55:09.710Z,5.85
2023-02-13T08:57:37.660Z,10.82
2023-02-13T09:00:06.292Z,15.32
2023-02-13T09:02:34.246Z,11.25
2023-02-13T09:05:02.281Z,11.27
2023-02-13T09:07:30.125Z,12.38
2023-02-13T09:09:58.301Z,11.88
2023-02-13T09:12:27.507Z,11.25
2023-02-13T09:14:55.370Z,10.00
2023-02-13T09:17:23.325Z,10.82
2023-02-13T09:19:51.221Z,10.75
2023-02-13T09:22:19.063Z,10.27
2023-02-13T09:24:47.070Z,11.55
2023-02-13T09:27:14.937Z,11.45
2023-02-13T09:29:44.284Z,10.27
2023-02-13T09:32:12.230Z,11.20
2023-02-13T09:34:40.150Z,10.85
2023-02-13T09:37:08.016Z,10.23
2023-02-13T09:39:35.866Z,10.73
2023-02-13T09:42:03.818Z,10.40
2023-02-13T09:44:34.820Z,11.15
2023-02-13T09:47:06.523Z,10.20
2023-02-13T09:49:36.948Z,9.57
2023-02-13T09:52:05.091Z,10.52
2023-02-13T09:54:32.954Z,9.85
2023-02-13T09:57:02.123Z,10.30
2023-02-13T09:59:40.547Z,10.25
2023-02-13T10:02:20.146Z,8.88
2023-02-13T10:04:50.755Z,9.00
2023-02-13T10:07:23.240Z,8.57
2023-02-13T10:09:54.603Z,8.85
2023-02-13T10:12:27.251Z,8.57
2023-02-13T10:15:04.425Z,8.77
2023-02-13T10:17:36.266Z,8.82
2023-02-13T10:20:04.886Z,8.45
2023-02-13T10:22:35.214Z,8.13
2023-02-13T10:25:05.203Z,8.35
2023-02-13T10:27:35.511Z,7.88
2023-02-13T10:30:09.498Z,8.65
2023-02-13T10:33:11.228Z,8.52
2023-02-13T10:35:39.561Z,8.00
2023-02-13T10:38:14.939Z,7.80
2023-02-13T10:40:48.832Z,7.93
2023-02-13T10:43:19.068Z,7.22
2023-02-13T10:45:52.488Z,7.22
2023-02-13T10:48:38.796Z,7.65
2023-02-13T10:51:09.842Z,7.50
2023-02-13T10:53:45.290Z,6.80
2023-02-13T10:56:21.515Z,7.20
2023-02-13T10:58:56.032Z,6.97
2023-02-13T11:01:31.038Z,6.75
2023-02-13T11:04:06.641Z,7.15
2023-02-13T11:06:35.605Z,6.50
2023-02-13T11:09:03.587Z,7.00
2023-02-13T11:11:32.733Z,6.35
2023-02-13T11:14:10.039Z,6.50
2023-02-13T11:16:48.757Z,5.80
2023-02-13T11:19:23.061Z,6.18
2023-02-13T11:21:54.721Z,6.05
2023-02-13T11:24:23.691Z,6.43
2023-02-13T11:26:53.025Z,6.07
2023-02-13T11:29:23.895Z,6.10
2023-02-13T11:32:03.112Z,6.57
2023-02-13T11:34:32.984Z,7.65
2023-02-13T11:37:16.711Z,6.82
2023-02-13T11:39:45.702Z,8.68
2023-02-13T11:42:14.700Z,8.55
2023-02-13T11:44:42.841Z,9.77
2023-02-13T11:47:10.698Z,9.98
2023-02-13T11:49:39.983Z,10.35
2023-02-13T11:52:08.725Z,10.43
2023-02-13T11:54:37.433Z,10.77
2023-02-13T11:57:18.629Z,9.93
2023-02-13T11:59:47.070Z,9.77
2023-02-13T12:02:17.479Z,10.35
2023-02-13T12:04:47.326Z,10.30
2023-02-13T12:07:21.061Z,9.90
2023-02-13T12:09:50.024Z,10.63
2023-02-13T12:12:20.700Z,10.10
2023-02-13T12:14:48.548Z,9.77
2023-02-13T12:17:30.853Z,9.40
2023-02-13T12:20:01.359Z,8.75
2023-02-13T12:22:41.475Z,9.77
2023-02-13T12:25:57.842Z,8.77
2023-02-13T12:28:29.561Z,7.90
2023-02-13T12:31:14.865Z,7.82
2023-02-13T12:34:15.889Z,7.88
2023-02-13T12:36:49.523Z,7.65
2023-02-13T12:39:26.561Z,7.80
2023-02-13T12:42:01.050Z,7.80
2023-02-13T12:44:45.939Z,8.63
2023-02-13T12:47:17.628Z,7.45
2023-02-13T12:50:03.004Z,7.35
2023-02-13T12:52:52.952Z,7.30
2023-02-13T12:55:28.762Z,7.25
2023-02-13T12:58:08.904Z,6.97
2023-02-13T13:00:42.977Z,7.68
2023-02-13T13:03:20.142Z,7.18
2023-02-13T13:06:11.834Z,6.97
2023-02-13T13:09:10.195Z,6.88
2023-02-13T13:12:09.073Z,6.22
2023-02-13T13:14:40.280Z,6.00
2023-02-13T13:17:10.668Z,6.55
2023-02-13T13:19:41.443Z,6.20
2023-02-13T13:22:11.571Z,6.13
2023-02-13T13:24:50.876Z,6.20
2023-02-13T13:27:20.748Z,6.30
2023-02-13T13:29:52.599Z,5.80
2023-02-13T13:32:21.128Z,6.53
2023-02-13T13:34:48.987Z,5.90
2023-02-13T13:37:20.711Z,5.72
2023-02-13T13:39:52.392Z,5.78
2023-02-13T13:42:21.450Z,6.28
2023-02-13T13:44:53.998Z,6.00
2023-02-13T13:47:26.462Z,5.88
2023-02-13T13:49:55.301Z,5.72
2023-02-13T13:52:25.366Z,6.25
2023-02-13T13:54:54.836Z,5.50
2023-02-13T13:57:23.334Z,6.13
2023-02-13T14:00:21.072Z,5.60
2023-02-13T14:02:49.694Z,5.63
2023-02-13T14:05:29.423Z,5.15
2023-02-13T14:07:57.980Z,5.40
2023-02-13T14:11:02.461Z,5.10
2023-02-13T14:13:31.289Z,5.35
2023-02-13T14:15:59.270Z,4.93
2023-02-13T14:18:27.190Z,5.20
2023-02-13T14:20:55.875Z,5.35
2023-02-13T14:23:30.593Z,4.63
2023-02-13T14:26:31.267Z,5.18
2023-02-13T14:29:22.638Z,4.90
2023-02-13T14:32:01.180Z,4.80
2023-02-13T14:34:30.605Z,5.05
2023-02-13T14:37:08.688Z,5.07
2023-02-13T14:39:36.630Z,5.05
2023-02-13T14:42:07.089Z,4.93
2023-02-13T14:44:37.047Z,4.57
2023-02-13T14:47:06.438Z,4.72
2023-02-13T14:49:35.699Z,5.00
2023-02-13T14:52:05.113Z,4.13
2023-02-13T14:54:34.049Z,4.95
2023-02-13T14:57:10.079Z,4.60
2023-02-13T14:59:39.535Z,4.43
2023-02-13T15:02:16.184Z,4.40
2023-02-13T15:04:44.829Z,4.03
2023-02-13T15:07:15.502Z,4.13
2023-02-13T15:09:47.078Z,4.40
2023-02-13T15:12:30.580Z,4.57
2023-02-13T15:14:58.713Z,4.15
2023-02-13T15:17:29.236Z,4.45
2023-02-13T15:20:00.302Z,4.60
2023-02-13T15:22:31.787Z,4.38
2023-02-13T15:24:59.819Z,4.13
2023-02-13T15:27:29.828Z,3.90
2023-02-13T15:29:59.711Z,4.00
2023-02-13T15:32:30.223Z,4.30
2023-02-13T15:34:58.328Z,4.22
2023-02-13T15:37:28.411Z,4.05
2023-02-13T15:39:56.320Z,3.75
2023-02-13T15:42:24.243Z,4.05
2023-02-13T15:44:54.454Z,4.10
2023-02-13T15:47:24.474Z,4.10
2023-02-13T15:49:52.356Z,4.10
2023-02-13T15:52:21.379Z,3.95
2023-02-13T15:54:50.456Z,3.97
2023-02-13T15:57:18.496Z,4.00
2023-02-13T15:59:46.518Z,3.97
2023-02-13T16:02:20.118Z,3.63
2023-02-13T16:04:48.207Z,3.90
2023-02-13T16:07:16.257Z,4.20
2023-02-13T16:09:44.240Z,4.07
2023-02-13T16:12:22.762Z,3.90
2023-02-13T16:14:53.798Z,3.78
2023-02-13T16:17:29.941Z,3.97
2023-02-13T16:20:02.845Z,3.88
2023-02-13T16:22:33.300Z,4.00
2023-02-13T16:25:23.854Z,3.90
2023-02-13T16:27:52.999Z,3.85
2023-02-13T16:30:32.055Z,3.63
2023-02-13T16:33:12.915Z,3.80
2023-02-13T16:35:42.634Z,3.60
2023-02-13T16:38:26.357Z,3.75
2023-02-13T16:40:54.885Z,3.50
2023-02-13T16:43:46.157Z,3.65
2023-02-13T16:46:29.057Z,3.90
2023-02-13T16:49:05.583Z,3.60
2023-02-13T16:51:35.871Z,3.92
2023-02-13T16:54:04.616Z,3.70
2023-02-13T16:56:38.608Z,3.60
2023-02-13T16:59:12.889Z,3.42
2023-02-13T17:01:40.773Z,3.88
2023-02-13T17:04:16.411Z,3.55
2023-02-13T17:06:44.411Z,3.40
2023-02-13T17:09:12.287Z,3.40
2023-02-13T17:11:40.413Z,3.72
2023-02-13T17:14:08.344Z,3.42
2023-02-13T17:16:36.350Z,3.42
2023-02-13T17:19:04.373Z,3.50
2023-02-13T17:21:33.606Z,3.50
2023-02-13T17:24:01.861Z,3.58
2023-02-13T17:26:29.735Z,3.50
2023-02-13T17:28:57.594Z,3.20
2023-02-13T17:31:25.596Z,3.65
2023-02-13T17:33:53.640Z,3.08
2023-02-13T17:36:21.508Z,3.63
2023-02-13T17:38:50.755Z,3.63
2023-02-13T17:41:18.771Z,2.97
2023-02-13T17:43:46.668Z,3.47
2023-02-13T17:46:16.848Z,3.22
2023-02-13T17:48:44.765Z,3.30
2023-02-13T17:51:13.705Z,3.50
2023-02-13T17:53:41.597Z,3.40
2023-02-13T17:56:10.903Z,3.20
2023-02-13T17:58:38.770Z,3.30
2023-02-13T18:01:06.869Z,3.42
2023-02-13T18:03:35.060Z,3.10
2023-02-13T18:06:03.025Z,3.08
2023-02-13T18:08:30.955Z,3.17
2023-02-13T18:10:59.167Z,3.22
2023-02-13T18:13:28.677Z,3.13
2023-02-13T18:15:56.585Z,2.97
2023-02-13T18:18:24.474Z,3.10
2023-02-13T18:20:56.303Z,3.03
2023-02-13T18:23:24.295Z,3.08
2023-02-13T18:25:52.180Z,2.95
2023-02-13T18:28:20.075Z,2.92
2023-02-13T18:30:49.509Z,2.67
2023-02-13T18:33:18.229Z,2.95
2023-02-13T18:35:46.370Z,3.10
2023-02-13T18:38:15.020Z,3.25
2023-02-13T18:40:43.140Z,2.78
2023-02-13T18:43:11.254Z,3.00
2023-02-13T18:45:39.215Z,2.83
2023-02-13T18:48:09.518Z,2.70
2023-02-13T18:50:39.931Z,3.00
2023-02-13T18:53:07.794Z,2.97
2023-02-13T18:55:35.819Z,2.90
2023-02-13T18:58:03.942Z,2.33
2023-02-13T19:00:31.840Z,3.00
2023-02-13T19:03:02.528Z,2.80
2023-02-13T19:05:32.053Z,2.95
2023-02-13T19:08:00.904Z,2.80
2023-02-13T19:10:28.852Z,2.90
2023-02-13T19:12:56.910Z,2.42
2023-02-13T19:15:25.208Z,3.00
2023-02-13T19:17:57.048Z,2.67
2023-02-13T19:20:25.249Z,2.72
2023-02-13T19:22:55.227Z,2.70
2023-02-13T19:25:23.132Z,2.83
2023-02-13T19:27:51.423Z,2.50
2023-02-13T19:30:19.829Z,2.60
2023-02-13T19:32:47.684Z,3.00
2023-02-13T19:35:15.912Z,2.78
2023-02-13T19:37:44.640Z,2.80
2023-02-13T19:40:15.108Z,2.90
2023-02-13T19:42:43.055Z,2.88
2023-02-13T19:45:11.642Z,2.65
2023-02-13T19:47:39.866Z,2.60
2023-02-13T19:50:09.187Z,2.50
2023-02-13T19:52:37.249Z,2.38
2023-02-13T19:55:05.490Z,2.67
2023-02-13T19:57:34.891Z,2.50
2023-02-13T20:00:04.615Z,2.55
2023-02-13T20:02:42.946Z,2.50
2023-02-13T20:05:11.109Z,2.25
2023-02-13T20:07:39.226Z,2.40
2023-02-13T20:10:09.603Z,2.38
2023-02-13T20:12:39.328Z,2.65
2023-02-13T20:15:07.911Z,2.70
2023-02-13T20:17:37.731Z,2.65
2023-02-13T20:20:06.845Z,2.42
2023-02-13T20:22:34.890Z,2.60
2023-02-13T20:25:02.941Z,2.47
2023-02-13T20:27:31.078Z,2.58
2023-02-13T20:30:06.595Z,2.35
2023-02-13T20:32:35.092Z,3.05
2023-02-13T20:35:03.063Z,2.30
2023-02-13T20:37:31.701Z,2.63
2023-02-13T20:39:59.566Z,2.38
2023-02-13T20:42:27.673Z,2.60
2023-02-13T20:44:55.547Z,2.60
2023-02-13T20:47:24.717Z,2.45
2023-02-13T20:49:52.866Z,2.40
2023-02-13T20:52:21.319Z,2.45
2023-02-13T20:54:49.333Z,2.45
2023-02-13T20:57:17.343Z,2.42
2023-02-13T20:59:45.790Z,2.50
2023-02-13T21:02:13.888Z,2.55
2023-02-13T21:04:43.232Z,2.65
2023-02-13T21:07:11.160Z,2.45
2023-02-13T21:09:39.073Z,2.35
2023-02-13T21:12:07.260Z,2.60
2023-02-13T21:14:35.247Z,2.78
2023-02-13T21:17:03.283Z,2.40
2023-02-13T21:19:32.046Z,2.80
2023-02-13T21:22:11.140Z,2.47
2023-02-13T21:24:39.251Z,2.58
2023-02-13T21:27:07.524Z,2.40
2023-02-13T21:29:35.702Z,2.63
2023-02-13T21:32:03.776Z,2.72
2023-02-13T21:34:31.718Z,2.30
2023-02-13T21:37:00.903Z,2.30
2023-02-13T21:39:29.034Z,2.60
2023-02-13T21:41:56.918Z,2.30
2023-02-13T21:44:24.866Z,2.65
2023-02-13T21:46:52.889Z,2.50
2023-02-13T21:49:20.804Z,2.33
2023-02-13T21:51:48.656Z,2.55
2023-02-13T21:54:17.837Z,2.40
2023-02-13T21:56:45.747Z,2.40
2023-02-13T21:59:15.176Z,2.53
2023-02-13T22:01:46.597Z,2.67
2023-02-13T22:04:14.686Z,2.50
2023-02-13T22:06:42.612Z,2.38
2023-02-13T22:09:11.276Z,2.55
2023-02-13T22:11:40.666Z,2.47
2023-02-13T22:14:11.758Z,2.30
2023-02-13T22:16:39.838Z,2.00
2023-02-13T22:19:07.880Z,2.50
2023-02-13T22:21:36.311Z,2.35
2023-02-13T22:24:04.351Z,2.30
2023-02-13T22:26:33.033Z,2.85
2023-02-13T22:29:03.622Z,2.38
2023-02-13T22:31:31.660Z,2.60
2023-02-13T22:34:04.302Z,2.25
2023-02-13T22:36:32.791Z,2.22
2023-02-13T22:39:00.657Z,2.53
2023-02-13T22:41:28.891Z,2.20
2023-02-13T22:43:56.810Z,2.30
2023-02-13T22:46:26.910Z,2.40
2023-02-13T22:48:54.942Z,2.20
2023-02-13T22:51:23.942Z,2.10
2023-02-13T22:53:53.610Z,1.90
2023-02-13T22:56:21.583Z,2.17
2023-02-13T22:58:49.611Z,2.30
2023-02-13T23:01:19.061Z,2.20
2023-02-13T23:03:48.586Z,2.15
2023-02-13T23:06:16.501Z,2.10
2023-02-13T23:08:44.610Z,2.17
2023-02-13T23:11:27.220Z,1.90
2023-02-13T23:13:55.098Z,2.03
2023-02-13T23:16:22.965Z,2.10
2023-02-13T23:18:54.845Z,2.40
2023-02-13T23:21:22.927Z,2.25
2023-02-13T23:23:50.913Z,2.08
2023-02-13T23:26:18.890Z,1.80
2023-02-13T23:28:46.762Z,2.22
2023-02-13T23:31:14.669Z,2.08
2023-02-13T23:33:42.746Z,2.10
2023-02-13T23:36:12.058Z,2.28
2023-02-13T23:38:39.938Z,2.22
2023-02-13T23:41:08.692Z,2.08
2023-02-13T23:43:36.602Z,1.98
2023-02-13T23:46:04.872Z,2.05
2023-02-13T23:48:32.814Z,2.10
2023-02-13T23:51:01.254Z,2.00
2023-02-13T23:53:31.039Z,2.10
2023-02-13T23:55:58.929Z,2.10
2023-02-13T23:58:26.780Z,2.15
